createdAt,value
2022-08-30T00:00:14.022Z,56.76
2022-08-30T00:05:21.199Z,56.66
2022-08-30T00:10:28.391Z,56.76
2022-08-30T00:15:35.598Z,56.92
2022-08-30T00:20:42.756Z,57.07
2022-08-30T00:25:49.952Z,57.06
2022-08-30T00:30:57.236Z,56.97
2022-08-30T00:36:04.817Z,56.91
2022-08-30T00:41:12.005Z,56.90
2022-08-30T00:46:19.353Z,57.00
2022-08-30T00:51:26.475Z,56.84
2022-08-30T00:56:33.654Z,56.84
2022-08-30T01:01:40.899Z,57.03
2022-08-30T01:06:48.028Z,56.93
2022-08-30T01:11:55.173Z,57.02
2022-08-30T01:17:02.399Z,57.03
2022-08-30T01:22:09.584Z,56.80
2022-08-30T01:27:16.778Z,56.79
2022-08-30T01:32:28.549Z,56.85
2022-08-30T01:37:31.119Z,56.94
2022-08-30T01:42:38.332Z,56.95
2022-08-30T01:47:45.608Z,56.94
2022-08-30T01:52:52.826Z,56.86
2022-08-30T01:58:00.007Z,56.76
2022-08-30T02:03:07.176Z,56.74
2022-08-30T02:08:14.374Z,56.76
2022-08-30T02:13:21.545Z,56.70
2022-08-30T02:18:28.743Z,56.80
2022-08-30T02:23:36.857Z,56.90
2022-08-30T02:28:49.831Z,56.89
2022-08-30T02:33:51.306Z,57.01
2022-08-30T02:38:58.469Z,57.01
2022-08-30T02:44:05.658Z,56.68
2022-08-30T02:49:32.756Z,56.91
2022-08-30T02:54:20.173Z,56.63
2022-08-30T02:59:27.201Z,56.64
2022-08-30T03:04:34.419Z,56.62
2022-08-30T03:09:41.686Z,56.83
2022-08-30T03:14:50.460Z,56.85
2022-08-30T03:19:57.648Z,56.89
2022-08-30T03:25:04.807Z,56.95
2022-08-30T03:30:12.071Z,57.04
2022-08-30T03:35:19.308Z,56.95
2022-08-30T03:40:26.526Z,56.99
2022-08-30T03:45:33.727Z,56.95
2022-08-30T03:50:40.953Z,56.94
2022-08-30T03:55:48.144Z,56.85
2022-08-30T04:00:56.397Z,56.98
2022-08-30T04:06:03.523Z,57.18
2022-08-30T04:11:10.707Z,57.11
2022-08-30T04:16:18.017Z,56.98
2022-08-30T04:21:25.182Z,57.02
2022-08-30T04:26:32.510Z,57.06
2022-08-30T04:31:42.646Z,57.02
2022-08-30T04:36:49.747Z,56.97
2022-08-30T04:41:56.942Z,56.89
2022-08-30T04:47:06.879Z,56.95
2022-08-30T04:52:14.104Z,57.00
2022-08-30T04:57:21.283Z,57.22
2022-08-30T05:02:28.565Z,56.81
2022-08-30T05:07:35.964Z,57.18
2022-08-30T05:12:43.148Z,57.32
2022-08-30T05:17:52.369Z,57.29
2022-08-30T05:22:59.523Z,57.27
2022-08-30T05:28:06.710Z,57.37
2022-08-30T05:33:13.888Z,57.35
2022-08-30T05:38:21.152Z,57.53
2022-08-30T05:43:30.452Z,57.64
2022-08-30T05:48:37.650Z,58.04
2022-08-30T05:53:47.864Z,58.12
2022-08-30T05:58:55.022Z,58.36
2022-08-30T06:04:04.056Z,58.25
2022-08-30T06:09:10.207Z,58.27
2022-08-30T06:14:17.422Z,57.92
2022-08-30T06:19:24.694Z,58.92
2022-08-30T06:24:55.831Z,58.36
2022-08-30T06:29:40.223Z,59.04
2022-08-30T06:34:47.442Z,59.02
2022-08-30T06:39:54.635Z,58.62
2022-08-30T06:45:01.825Z,58.27
2022-08-30T06:50:12.075Z,58.45
2022-08-30T06:55:19.514Z,59.10
2022-08-30T07:00:26.688Z,59.26
2022-08-30T07:05:33.892Z,59.27
2022-08-30T07:10:41.139Z,59.43
2022-08-30T07:15:48.839Z,60.30
2022-08-30T07:20:59.924Z,60.57
2022-08-30T07:26:07.132Z,60.70
2022-08-30T07:31:14.309Z,59.46
2022-08-30T07:36:21.480Z,60.84
2022-08-30T07:41:28.680Z,59.85
2022-08-30T07:46:35.999Z,60.75
2022-08-30T07:51:43.044Z,61.26
2022-08-30T07:56:50.233Z,60.14
2022-08-30T08:01:58.194Z,59.66
2022-08-30T08:07:05.471Z,59.66
2022-08-30T08:12:12.682Z,59.67
2022-08-30T08:17:22.182Z,59.85
2022-08-30T08:22:31.773Z,59.81
2022-08-30T08:27:42.042Z,59.85
2022-08-30T08:32:49.267Z,60.95
2022-08-30T08:38:00.068Z,60.81
2022-08-30T08:43:11.373Z,60.83
2022-08-30T08:48:18.550Z,60.86
2022-08-30T08:53:45.888Z,59.62
2022-08-30T08:58:41.943Z,60.26
2022-08-30T09:03:49.146Z,59.72
2022-08-30T09:08:56.309Z,59.17
2022-08-30T09:14:03.494Z,58.90
2022-08-30T09:19:10.693Z,59.66
2022-08-30T09:24:19.654Z,59.68
2022-08-30T09:29:28.259Z,59.10
2022-08-30T09:34:37.645Z,57.95
2022-08-30T09:39:59.840Z,58.64
2022-08-30T09:45:21.944Z,57.58
2022-08-30T09:50:29.111Z,58.11
2022-08-30T09:55:36.358Z,57.75
2022-08-30T10:00:43.588Z,57.53
2022-08-30T10:05:52.111Z,57.88
2022-08-30T10:10:57.954Z,57.19
2022-08-30T10:16:05.139Z,57.39
2022-08-30T10:21:15.616Z,57.59
2022-08-30T10:26:19.521Z,57.37
2022-08-30T10:31:26.695Z,57.28
2022-08-30T10:36:33.891Z,57.78
2022-08-30T10:41:41.059Z,57.60
2022-08-30T10:46:48.283Z,57.30
2022-08-30T10:51:55.526Z,57.30
2022-08-30T10:57:02.722Z,57.62
2022-08-30T11:02:09.898Z,57.76
2022-08-30T11:07:17.094Z,57.65
2022-08-30T11:12:24.267Z,57.72
2022-08-30T11:17:31.512Z,57.70
2022-08-30T11:22:39.377Z,57.81
2022-08-30T11:27:45.956Z,58.38
2022-08-30T11:32:53.132Z,57.92
2022-08-30T11:38:00.405Z,57.93
2022-08-30T11:43:07.683Z,57.97
2022-08-30T11:48:14.880Z,58.63
2022-08-30T11:53:22.084Z,58.11
2022-08-30T11:58:29.322Z,58.25
2022-08-30T12:03:36.680Z,58.08
2022-08-30T12:08:44.779Z,58.27
2022-08-30T12:13:51.154Z,58.04
2022-08-30T12:18:58.379Z,57.92
2022-08-30T12:24:05.585Z,57.91
2022-08-30T12:29:12.924Z,58.17
2022-08-30T12:34:20.360Z,58.31
2022-08-30T12:39:27.581Z,58.12
2022-08-30T12:44:34.799Z,58.12
2022-08-30T12:49:42.011Z,58.07
2022-08-30T12:54:49.256Z,58.11
2022-08-30T12:59:59.614Z,58.08
2022-08-30T13:05:03.676Z,58.14
2022-08-30T13:10:12.057Z,58.35
2022-08-30T13:15:18.154Z,58.28
2022-08-30T13:20:25.405Z,58.27
2022-08-30T13:25:32.942Z,58.26
2022-08-30T13:30:39.814Z,58.27
2022-08-30T13:35:47.018Z,58.27
2022-08-30T13:40:54.330Z,58.34
2022-08-30T13:46:01.511Z,58.33
2022-08-30T13:51:08.627Z,58.40
2022-08-30T13:56:15.821Z,58.72
2022-08-30T14:01:23.093Z,59.05
2022-08-30T14:06:34.022Z,58.91
2022-08-30T14:11:37.431Z,59.04
2022-08-30T14:16:44.766Z,58.95
2022-08-30T14:21:51.825Z,58.98
2022-08-30T14:26:59.016Z,58.88
2022-08-30T14:32:06.292Z,58.80
2022-08-30T14:37:13.450Z,58.87
2022-08-30T14:42:20.659Z,58.79
2022-08-30T14:47:29.806Z,58.82
2022-08-30T14:52:35.046Z,59.01
2022-08-30T14:57:42.265Z,58.76
2022-08-30T15:02:49.483Z,57.17
2022-08-30T15:07:56.685Z,57.22
2022-08-30T15:13:04.873Z,57.57
2022-08-30T15:18:11.203Z,57.54
2022-08-30T15:23:18.385Z,55.80
2022-08-30T15:28:25.564Z,52.52
2022-08-30T15:33:32.818Z,52.48
2022-08-30T15:38:40.032Z,52.91
2022-08-30T15:43:47.250Z,52.99
2022-08-30T15:48:54.479Z,52.85
2022-08-30T15:54:01.793Z,53.76
2022-08-30T15:59:08.937Z,53.98
2022-08-30T16:04:16.155Z,53.22
2022-08-30T16:09:23.396Z,53.44
2022-08-30T16:14:30.631Z,54.09
2022-08-30T16:19:37.816Z,54.15
2022-08-30T16:24:46.645Z,54.20
2022-08-30T16:29:52.173Z,54.38
2022-08-30T16:34:59.346Z,54.44
2022-08-30T16:40:06.661Z,54.59
2022-08-30T16:45:13.832Z,54.34
2022-08-30T16:50:21.044Z,54.19
2022-08-30T16:55:28.284Z,54.53
2022-08-30T17:00:35.540Z,54.80
2022-08-30T17:05:44.870Z,55.44
2022-08-30T17:10:50.228Z,54.90
2022-08-30T17:15:57.537Z,55.68
2022-08-30T17:21:04.758Z,55.89
2022-08-30T17:26:11.928Z,56.88
2022-08-30T17:31:19.172Z,57.27
2022-08-30T17:36:26.341Z,56.44
2022-08-30T17:41:33.558Z,56.61
2022-08-30T17:46:40.806Z,57.05
2022-08-30T17:51:47.949Z,57.04
2022-08-30T17:56:55.116Z,57.38
2022-08-30T18:02:02.396Z,56.17
2022-08-30T18:07:11.811Z,55.35
2022-08-30T18:12:16.675Z,55.07
2022-08-30T18:17:23.850Z,55.59
2022-08-30T18:22:31.052Z,56.14
2022-08-30T18:27:39.093Z,56.34
2022-08-30T18:32:45.505Z,55.76
2022-08-30T18:37:52.702Z,54.91
2022-08-30T18:42:59.888Z,54.58
2022-08-30T18:48:07.091Z,54.41
2022-08-30T18:53:14.402Z,54.18
2022-08-30T18:58:21.960Z,54.54
2022-08-30T19:03:32.960Z,55.42
2022-08-30T19:08:37.151Z,54.34
2022-08-30T19:13:44.569Z,53.76
2022-08-30T19:18:51.971Z,52.96
2022-08-30T19:23:59.490Z,52.44
2022-08-30T19:29:06.698Z,52.19
2022-08-30T19:34:14.126Z,52.04
2022-08-30T19:39:21.489Z,52.21
2022-08-30T19:44:28.786Z,52.16
2022-08-30T19:49:36.045Z,52.32
2022-08-30T19:54:43.291Z,52.47
2022-08-30T19:59:50.667Z,52.79
2022-08-30T20:04:57.905Z,52.64
2022-08-30T20:10:05.157Z,52.69
2022-08-30T20:15:12.354Z,52.73
2022-08-30T20:20:20.545Z,52.63
2022-08-30T20:25:26.827Z,52.18
2022-08-30T20:30:34.481Z,52.13
2022-08-30T20:35:43.544Z,51.76
2022-08-30T20:40:48.577Z,51.53
2022-08-30T20:45:55.832Z,51.19
2022-08-30T20:51:03.012Z,50.84
2022-08-30T20:56:10.214Z,50.39
2022-08-30T21:01:17.508Z,50.10
2022-08-30T21:06:24.586Z,49.96
2022-08-30T21:11:31.833Z,49.74
2022-08-30T21:16:40.448Z,49.80
2022-08-30T21:21:47.568Z,49.55
2022-08-30T21:26:54.738Z,49.29
2022-08-30T21:32:01.925Z,49.43
2022-08-30T21:37:09.126Z,49.52
2022-08-30T21:42:16.408Z,49.55
2022-08-30T21:47:24.030Z,49.46
2022-08-30T21:52:30.998Z,49.51
2022-08-30T21:57:38.273Z,49.61
2022-08-30T22:02:45.674Z,49.33
2022-08-30T22:07:53.416Z,49.64
2022-08-30T22:13:00.601Z,48.75
2022-08-30T22:18:07.803Z,49.06
2022-08-30T22:23:18.974Z,49.26
2022-08-30T22:28:22.274Z,49.57
2022-08-30T22:33:29.453Z,50.06
2022-08-30T22:38:36.641Z,50.28
2022-08-30T22:43:43.827Z,50.71
2022-08-30T22:48:51.014Z,50.64
2022-08-30T22:53:58.284Z,50.76
2022-08-30T22:59:05.555Z,50.95
2022-08-30T23:04:12.768Z,51.10
2022-08-30T23:09:20.023Z,52.16
2022-08-30T23:14:27.247Z,52.53
2022-08-30T23:19:34.538Z,52.54
2022-08-30T23:24:41.706Z,52.06
2022-08-30T23:29:48.916Z,51.90
2022-08-30T23:34:56.183Z,52.16
2022-08-30T23:40:03.502Z,52.38
2022-08-30T23:45:10.699Z,52.30
2022-08-30T23:50:17.939Z,52.42
2022-08-30T23:55:25.215Z,52.80
